Hauptseite
METAR-TAF:

METAR-TAF

Flughäfen :

Militärflugplatz Orange-Caritat

Orange, Frankreich

Breite: 44-08N, Länge: 004-50E, Höhe: 60 m

Beobachtung

Neuester Wetterbericht von vor 37 Minuten, um 06:30 UTC
Wind 12 kt aus Nord
Temperatur 24°C
Luftfeuchtigkeit 50%
Luftdruck 1015 hPa
Sichtweite: 9000 m

METAR: LFMO 180630Z AUTO 35012KT 9000 NSC 24/13 Q1015 NOSIG

Zeit: 09:07 (07:07 UTC)

Prognose

Neuester Wetterbericht von vor 5 Stunden und 7 Minuten, um 02:00 UTC
Gültige Prognose vom 18 um 03 UTC bis 19 um 03 UTC
Wind 15 kt aus Nord/Nordwest, Böen bis zu 25 kt
Sichtweite 10 km oder mehr
keine Wolken unter 1500 m und keine Kumulonimbus oder Gewitterwolken
Übergehend zu
vom 18 um 07 UTC bis 18 um 09 UTC
Wind 12 kt aus Nord

TAF: LFMO 180200Z 1803/1903 34015G25KT CAVOK BECMG 1807/1809 35012KT

Wetterbeobachtungen und Prognosen von mehr als 4000 Flughäfen (METAR und TAF Bericht).

Die verfügbaren Stationen werden durch gelbe und rote Markierungen auf der Karte dargestellt.

Führen Sie die Maus auf sie, um den Namen der Station zu sehen.

Darauf klicken, um die Beobachtung von Wetterbeobachtungen und Prognosen zu sehen.

Um die Karte zu ändern : klicken Sie auf den grünen Tasten mit einem schwarzen Kreuz Zum Vergrößern, auf den grünen Button mit einem Gedankenstrich zu verkleinern, oder auf die grünen Pfeile für benachbarte Karten.


METAR-TAF: